Time;durP1;ratioP1;P1;durP2;ratioP2;P2;SDS_P1;SDS_P2;PMS_P1;PMS_P2;Temp;Humidity;BMP_temperature;BMP_pressure;BME280_temperature;BME280_humidity;BME280_pressure;Samples;Min_cycle;Max_cycle;Signal;HPM_P1;HPM_P2
2023/03/11 00:00:36;;;;;;;1999.90;999.90;;;4.20;99.90;;;;;;5070428;28;20442;-63
2023/03/11 00:03:06;;;;;;;1999.90;999.90;;;4.20;99.90;;;;;;5069472;28;20485;-66
2023/03/11 00:05:36;;;;;;;1999.90;999.90;;;4.20;99.90;;;;;;5070199;28;20467;-65
2023/03/11 00:08:04;;;;;;;1999.90;999.90;;;4.20;99.90;;;;;;5069659;28;20944;-65
2023/03/11 00:10:33;;;;;;;1999.90;999.90;;;4.10;99.90;;;;;;5070177;28;20517;-65
2023/03/11 00:13:01;;;;;;;1999.90;999.90;;;4.10;99.90;;;;;;5066612;28;20449;-65
2023/03/11 00:15:29;;;;;;;1999.90;999.90;;;4.10;99.90;;;;;;5068678;28;20473;-66
2023/03/11 00:17:56;;;;;;;1999.90;999.90;;;4.00;99.90;;;;;;5068405;28;20526;-65
2023/03/11 00:20:27;;;;;;;1999.90;999.90;;;4.00;99.90;;;;;;5068671;28;20443;-66
2023/03/11 00:22:54;;;;;;;1999.90;999.90;;;4.00;99.90;;;;;;5068247;28;20482;-65
2023/03/11 00:25:22;;;;;;;1999.90;999.90;;;3.90;99.90;;;;;;5068571;28;20475;-65
2023/03/11 00:27:48;;;;;;;1999.90;999.90;;;3.80;99.90;;;;;;5068957;28;20451;-65
2023/03/11 00:30:17;;;;;;;1999.90;999.90;;;3.70;99.90;;;;;;5068958;28;20462;-66
2023/03/11 00:32:44;;;;;;;1999.90;999.90;;;3.70;99.90;;;;;;5069233;28;20823;-66
2023/03/11 00:35:13;;;;;;;1999.90;999.90;;;3.70;99.90;;;;;;5069112;28;20467;-67
2023/03/11 00:37:42;;;;;;;1999.90;999.90;;;3.70;99.90;;;;;;5065527;28;20464;-65
2023/03/11 00:40:12;;;;;;;1999.90;999.90;;;3.60;99.90;;;;;;5065655;28;20443;-66
2023/03/11 00:42:39;;;;;;;1999.90;999.90;;;3.60;99.90;;;;;;5068279;28;20475;-66
2023/03/11 00:45:07;;;;;;;1999.90;999.90;;;3.60;99.90;;;;;;5068144;28;20471;-67
2023/03/11 00:47:34;;;;;;;1999.90;999.90;;;3.70;99.90;;;;;;5068290;28;20836;-64
2023/03/11 00:50:00;;;;;;;1999.90;999.90;;;3.70;99.90;;;;;;5067874;28;20941;-65
2023/03/11 00:52:28;;;;;;;1999.90;999.90;;;3.70;99.90;;;;;;5068073;28;20589;-64
2023/03/11 00:54:56;;;;;;;1999.90;999.90;;;3.70;99.90;;;;;;5061396;28;20471;-66
2023/03/11 00:57:22;;;;;;;1999.90;999.90;;;3.70;99.90;;;;;;5068031;28;20448;-66
2023/03/11 00:59:49;;;;;;;1999.90;999.90;;;3.70;99.90;;;;;;5067564;28;20454;-65
2023/03/11 01:02:16;;;;;;;1999.90;999.90;;;3.70;99.90;;;;;;5067547;28;20514;-69
2023/03/11 01:04:43;;;;;;;1999.90;999.90;;;3.70;99.90;;;;;;5067976;28;20501;-64
2023/03/11 01:07:10;;;;;;;1999.90;999.90;;;3.70;99.90;;;;;;5067238;28;20558;-66
2023/03/11 01:09:36;;;;;;;1999.90;999.90;;;3.70;99.90;;;;;;5068307;28;20458;-65
2023/03/11 01:12:05;;;;;;;1999.90;999.90;;;3.60;99.90;;;;;;5067376;28;20470;-66
2023/03/11 01:14:32;;;;;;;1999.90;999.90;;;3.60;99.90;;;;;;5067608;28;20467;-66
2023/03/11 01:16:59;;;;;;;1999.90;999.90;;;3.50;99.90;;;;;;5066742;28;20463;-66
2023/03/11 01:19:25;;;;;;;1999.90;999.90;;;3.40;99.90;;;;;;5067662;28;21025;-66
2023/03/11 01:21:52;;;;;;;1999.90;999.90;;;3.40;99.90;;;;;;5067237;28;20486;-64
2023/03/11 01:24:19;;;;;;;1999.90;999.90;;;3.30;99.90;;;;;;5067210;28;20467;-65
2023/03/11 01:26:46;;;;;;;1999.90;999.90;;;3.30;99.90;;;;;;5067577;28;20450;-65
2023/03/11 01:29:14;;;;;;;1999.90;999.90;;;3.30;99.90;;;;;;5066911;28;20967;-65
2023/03/11 01:31:41;;;;;;;1999.90;999.90;;;3.30;99.90;;;;;;5067859;28;20443;-65
2023/03/11 01:34:07;;;;;;;1999.90;999.90;;;3.30;99.90;;;;;;5068052;28;20876;-65
2023/03/11 01:36:34;;;;;;;1999.90;999.90;;;3.20;99.90;;;;;;5068081;28;20439;-64
2023/03/11 01:39:01;;;;;;;1999.90;999.90;;;3.20;99.90;;;;;;5068233;28;20454;-65
2023/03/11 01:41:28;;;;;;;1999.90;999.90;;;3.20;99.90;;;;;;5068010;28;20444;-68
2023/03/11 01:43:55;;;;;;;1999.90;999.90;;;3.20;99.90;;;;;;5067788;28;20470;-66
2023/03/11 01:46:25;;;;;;;1999.90;999.90;;;3.20;99.90;;;;;;5068476;28;20439;-66
2023/03/11 01:48:53;;;;;;;1999.90;999.90;;;3.20;99.90;;;;;;5069890;28;20454;-65
2023/03/11 01:51:27;;;;;;;1999.90;999.90;;;3.20;99.90;;;;;;5069847;28;20959;-66
2023/03/11 01:53:55;;;;;;;1999.90;999.90;;;3.20;99.90;;;;;;5069226;28;20471;-65
2023/03/11 01:56:23;;;;;;;1999.90;999.90;;;3.20;99.90;;;;;;5069447;28;20465;-65
2023/03/11 01:58:52;;;;;;;1999.90;999.90;;;3.20;99.90;;;;;;5069866;28;20447;-66
2023/03/11 02:01:20;;;;;;;1999.90;999.90;;;3.10;99.90;;;;;;5069744;28;20454;-66
2023/03/11 02:03:49;;;;;;;1999.90;999.90;;;3.10;99.90;;;;;;5069707;28;20486;-66
2023/03/11 02:06:19;;;;;;;1999.90;999.90;;;3.10;99.90;;;;;;5069755;28;20447;-66
2023/03/11 02:08:46;;;;;;;1999.90;999.90;;;3.00;99.90;;;;;;5069696;28;20941;-65
2023/03/11 02:11:17;;;;;;;1999.90;999.90;;;3.00;99.90;;;;;;5069552;28;20437;-65
2023/03/11 02:13:46;;;;;;;1999.90;999.90;;;3.00;99.90;;;;;;5069270;28;20455;-66
2023/03/11 02:16:13;;;;;;;1999.90;999.90;;;2.90;99.90;;;;;;5069449;28;20953;-66
2023/03/11 02:18:41;;;;;;;1999.90;999.90;;;2.80;99.90;;;;;;5071405;28;20447;-66
2023/03/11 02:21:21;;;;;;;1999.90;999.90;;;2.80;99.90;;;;;;5073693;28;20933;-66
2023/03/11 02:23:56;;;;;;;1999.90;999.90;;;2.80;99.90;;;;;;5073229;28;20486;-66
2023/03/11 02:26:27;;;;;;;1999.90;999.90;;;2.70;99.90;;;;;;5073514;28;20443;-66
2023/03/11 02:28:57;;;;;;;1999.90;999.90;;;2.70;99.90;;;;;;5073633;28;20455;-66
2023/03/11 02:31:25;;;;;;;1999.90;999.90;;;2.70;99.90;;;;;;5073631;28;20809;-66
2023/03/11 02:33:54;;;;;;;1999.90;999.90;;;2.70;99.90;;;;;;5072839;28;20490;-66
2023/03/11 02:36:32;;;;;;;1999.90;999.90;;;2.60;99.90;;;;;;5083197;22;21005;-64
2023/03/11 02:38:59;;;;;;;1999.90;999.90;;;2.70;99.90;;;;;;5045640;28;20447;-64
2023/03/11 02:41:27;;;;;;;1999.90;999.90;;;2.60;99.90;;;;;;5054149;28;20447;-63
2023/03/11 02:43:55;;;;;;;1999.90;999.90;;;2.60;99.90;;;;;;5054682;28;20483;-63
2023/03/11 02:46:22;;;;;;;1999.90;999.90;;;2.50;99.90;;;;;;5065566;28;20467;-64
2023/03/11 02:48:49;;;;;;;1999.90;999.90;;;2.50;99.90;;;;;;5074612;28;20451;-64
2023/03/11 02:51:16;;;;;;;1999.90;999.90;;;2.50;99.90;;;;;;5056023;28;20447;-63
2023/03/11 02:53:47;;;;;;;1999.90;999.90;;;2.40;99.90;;;;;;5053662;28;20515;-63
2023/03/11 02:56:14;;;;;;;1999.90;999.90;;;2.30;99.90;;;;;;5054524;28;20472;-63
2023/03/11 02:58:41;;;;;;;1999.90;999.90;;;2.30;99.90;;;;;;5054574;28;20454;-63
2023/03/11 03:01:10;;;;;;;1999.90;999.90;;;2.20;99.90;;;;;;5054052;28;20462;-63
2023/03/11 03:03:36;;;;;;;1999.90;999.90;;;2.20;99.90;;;;;;5053679;28;20483;-63
2023/03/11 03:06:03;;;;;;;1999.90;999.90;;;2.20;99.90;;;;;;5054204;28;20468;-63
2023/03/11 03:08:30;;;;;;;1999.90;999.90;;;2.10;99.90;;;;;;5054276;28;20474;-63
2023/03/11 03:10:58;;;;;;;1999.90;999.90;;;2.00;99.90;;;;;;5054197;28;20452;-64
2023/03/11 03:13:25;;;;;;;1999.90;999.90;;;2.00;99.90;;;;;;5053816;28;20443;-64
2023/03/11 03:15:52;;;;;;;1999.90;999.90;;;1.90;99.90;;;;;;5054212;28;20489;-64
2023/03/11 03:18:20;;;;;;;1999.90;999.90;;;1.80;99.90;;;;;;5054060;28;20455;-65
2023/03/11 03:20:47;;;;;;;1999.90;999.90;;;1.80;99.90;;;;;;5054148;28;20457;-64
2023/03/11 03:23:14;;;;;;;1999.90;999.90;;;1.80;99.90;;;;;;5064148;28;20486;-64
2023/03/11 03:25:42;;;;;;;1999.90;999.90;;;1.80;99.90;;;;;;5060696;28;20471;-64
2023/03/11 03:28:09;;;;;;;1999.90;999.90;;;1.80;99.90;;;;;;5053852;28;21063;-63
2023/03/11 03:30:35;;;;;;;1999.90;999.90;;;1.70;99.90;;;;;;5053685;28;20440;-64
2023/03/11 03:33:02;;;;;;;1999.90;999.90;;;1.70;99.90;;;;;;5052884;28;20938;-63
2023/03/11 03:35:31;;;;;;;1999.90;999.90;;;1.80;99.90;;;;;;5053074;28;20484;-60
2023/03/11 03:37:58;;;;;;;1999.90;999.90;;;1.70;99.90;;;;;;5052599;28;20470;-65
2023/03/11 03:40:24;;;;;;;1999.90;999.90;;;1.70;99.90;;;;;;5053185;28;20491;-63
2023/03/11 03:42:51;;;;;;;1999.90;999.90;;;1.60;99.90;;;;;;5052709;28;21028;-64
2023/03/11 03:45:18;;;;;;;1999.90;999.90;;;1.60;99.90;;;;;;5052523;28;20448;-63
2023/03/11 03:47:45;;;;;;;1999.90;999.90;;;1.60;99.90;;;;;;5053672;28;21131;-62
2023/03/11 03:50:12;;;;;;;1999.90;999.90;;;1.60;99.90;;;;;;5052754;28;20835;-63
2023/03/11 03:52:40;;;;;;;1999.90;999.90;;;1.60;99.90;;;;;;5053087;28;20471;-64
2023/03/11 03:55:08;;;;;;;1999.90;999.90;;;1.40;99.90;;;;;;5053103;28;20444;-64
2023/03/11 03:57:35;;;;;;;1999.90;999.90;;;1.50;99.90;;;;;;5053399;28;20448;-63
2023/03/11 04:00:03;;;;;;;1999.90;999.90;;;1.50;99.90;;;;;;5053264;28;20501;-64
2023/03/11 04:02:30;;;;;;;1999.90;999.90;;;1.50;99.90;;;;;;5053410;28;20494;-63
2023/03/11 04:04:57;;;;;;;1999.90;999.90;;;1.60;99.90;;;;;;5053438;28;20444;-63
2023/03/11 04:07:24;;;;;;;1999.90;999.90;;;1.60;99.90;;;;;;5053311;28;20498;-63
2023/03/11 04:09:52;;;;;;;1999.90;999.90;;;1.60;99.90;;;;;;5053302;28;20443;-65
2023/03/11 04:12:19;;;;;;;1999.90;999.90;;;1.60;99.90;;;;;;5053026;28;20456;-64
2023/03/11 04:14:45;;;;;;;1999.90;999.90;;;1.70;99.90;;;;;;5052872;28;20500;-64
2023/03/11 04:17:13;;;;;;;1999.90;999.90;;;1.70;99.90;;;;;;5052579;28;20471;-63
2023/03/11 04:19:40;;;;;;;1999.90;999.90;;;1.70;99.90;;;;;;5053102;28;20459;-63
2023/03/11 04:22:06;;;;;;;1999.90;999.90;;;1.60;99.90;;;;;;5053035;28;20453;-64
2023/03/11 04:24:33;;;;;;;1999.90;999.90;;;1.60;99.90;;;;;;5052275;28;20566;-64
2023/03/11 04:27:01;;;;;;;1999.90;999.90;;;1.50;99.90;;;;;;5052557;28;20483;-63
2023/03/11 04:29:28;;;;;;;1999.90;999.90;;;1.40;99.90;;;;;;5052672;28;20882;-64
2023/03/11 04:31:55;;;;;;;1999.90;999.90;;;1.40;99.90;;;;;;5052402;28;20452;-64
2023/03/11 04:34:22;;;;;;;1999.90;999.90;;;1.30;99.90;;;;;;5052093;28;20817;-64
2023/03/11 04:36:52;;;;;;;1999.90;999.90;;;1.30;99.90;;;;;;5052687;28;21224;-63
2023/03/11 04:39:19;;;;;;;1999.90;999.90;;;1.30;99.90;;;;;;5052652;28;20525;-63
2023/03/11 04:41:45;;;;;;;1999.90;999.90;;;1.20;99.90;;;;;;5051704;28;20452;-63
2023/03/11 04:44:13;;;;;;;1999.90;999.90;;;1.20;99.90;;;;;;5052082;28;20487;-63
2023/03/11 04:46:40;;;;;;;1999.90;999.90;;;1.20;99.90;;;;;;5052397;28;20464;-63
2023/03/11 04:49:07;;;;;;;1999.90;999.90;;;1.20;99.90;;;;;;5052870;28;20827;-64
2023/03/11 04:51:34;;;;;;;1999.90;999.90;;;1.10;99.90;;;;;;5052259;28;20554;-64
2023/03/11 04:54:01;;;;;;;1999.90;999.90;;;1.10;99.90;;;;;;5051914;28;20448;-64
2023/03/11 04:56:27;;;;;;;1999.90;999.90;;;1.10;99.90;;;;;;5051928;28;20478;-63
2023/03/11 04:58:54;;;;;;;1999.90;999.90;;;1.00;99.90;;;;;;5051660;28;20448;-64
2023/03/11 05:01:22;;;;;;;1999.90;999.90;;;1.00;99.90;;;;;;5052097;28;20452;-64
2023/03/11 05:03:49;;;;;;;1999.90;999.90;;;1.00;99.90;;;;;;5051649;28;20498;-64
2023/03/11 05:06:16;;;;;;;1999.90;999.90;;;1.00;99.90;;;;;;5051568;28;20472;-63
2023/03/11 05:08:43;;;;;;;1999.90;999.90;;;0.90;99.90;;;;;;5051603;28;20954;-63
2023/03/11 05:11:09;;;;;;;1999.90;999.90;;;1.00;99.90;;;;;;5051674;28;20955;-64
2023/03/11 05:13:36;;;;;;;1999.90;999.90;;;1.00;99.90;;;;;;5051415;28;20450;-64
2023/03/11 05:16:03;;;;;;;1999.90;999.90;;;1.10;99.90;;;;;;5052039;28;20476;-63
2023/03/11 05:18:31;;;;;;;1999.90;999.90;;;1.10;99.90;;;;;;5051581;28;20444;-64
2023/03/11 05:20:58;;;;;;;1999.90;999.90;;;1.10;99.90;;;;;;5051503;28;20452;-64
2023/03/11 05:23:25;;;;;;;1999.90;999.90;;;1.00;99.90;;;;;;5051194;28;21008;-64
2023/03/11 05:25:51;;;;;;;1999.90;999.90;;;1.00;99.90;;;;;;5051779;28;20464;-62
2023/03/11 05:28:18;;;;;;;1999.90;999.90;;;0.90;99.90;;;;;;5051943;28;20455;-63
2023/03/11 05:30:45;;;;;;;1999.90;999.90;;;0.90;99.90;;;;;;5051459;28;20441;-63
2023/03/11 05:33:12;;;;;;;1999.90;999.90;;;0.90;99.90;;;;;;5051356;28;20455;-63
2023/03/11 05:35:41;;;;;;;1999.90;999.90;;;0.90;99.90;;;;;;5050611;28;21297;-63
2023/03/11 05:38:08;;;;;;;1999.90;999.90;;;0.90;99.90;;;;;;5051447;28;20455;-63
2023/03/11 05:40:35;;;;;;;1999.90;999.90;;;0.80;99.90;;;;;;5051333;28;20455;-63
2023/03/11 05:43:01;;;;;;;1999.90;999.90;;;0.80;99.90;;;;;;5051493;28;20480;-64
2023/03/11 05:45:28;;;;;;;1999.90;999.90;;;0.90;99.90;;;;;;5050984;28;20464;-63
2023/03/11 05:47:55;;;;;;;1999.90;999.90;;;0.90;99.90;;;;;;5051513;28;20529;-64
2023/03/11 05:50:22;;;;;;;1999.90;999.90;;;0.90;99.90;;;;;;5052451;28;20444;-65
2023/03/11 05:52:50;;;;;;;1999.90;999.90;;;0.90;99.90;;;;;;5051109;28;20452;-63
2023/03/11 05:55:17;;;;;;;1999.90;999.90;;;0.80;99.90;;;;;;5051658;28;20458;-63
2023/03/11 05:57:44;;;;;;;1999.90;999.90;;;0.80;99.90;;;;;;5051744;28;20456;-63
2023/03/11 06:00:11;;;;;;;1999.90;999.90;;;0.80;99.90;;;;;;5051650;28;20452;-63
2023/03/11 06:02:39;;;;;;;1999.90;999.90;;;0.80;99.90;;;;;;5051108;28;21019;-63
2023/03/11 06:05:08;;;;;;;1999.90;999.90;;;0.80;99.90;;;;;;5052056;28;20484;-63
2023/03/11 06:07:35;;;;;;;1999.90;999.90;;;0.80;99.90;;;;;;5051964;28;20458;-63
2023/03/11 06:10:04;;;;;;;1999.90;999.90;;;0.80;99.90;;;;;;5050890;28;20456;-65
2023/03/11 06:12:33;;;;;;;1999.90;999.90;;;0.80;99.90;;;;;;5051013;28;20835;-63
2023/03/11 06:15:00;;;;;;;1999.90;999.90;;;0.80;99.90;;;;;;5051127;28;20942;-64
2023/03/11 06:17:27;;;;;;;1999.90;999.90;;;0.80;99.90;;;;;;5051042;28;20475;-63
2023/03/11 06:19:54;;;;;;;1999.90;999.90;;;0.90;99.90;;;;;;5051410;28;20455;-63
2023/03/11 06:22:20;;;;;;;1999.90;999.90;;;1.00;99.90;;;;;;5051298;28;20440;-63
2023/03/11 06:24:47;;;;;;;1999.90;999.90;;;1.00;99.90;;;;;;5050832;28;20476;-62
2023/03/11 06:27:15;;;;;;;1999.90;999.90;;;1.00;99.90;;;;;;5050774;28;20468;-63
2023/03/11 06:29:42;;;;;;;1999.90;999.90;;;1.00;99.90;;;;;;5050896;28;20553;-63
2023/03/11 06:32:09;;;;;;;1999.90;999.90;;;1.00;99.90;;;;;;5051188;28;20841;-63
2023/03/11 06:34:36;;;;;;;1999.90;999.90;;;1.10;99.90;;;;;;5050847;28;20440;-63
2023/03/11 06:37:03;;;;;;;1999.90;999.90;;;1.20;99.90;;;;;;5050640;28;20486;-63
2023/03/11 06:39:29;;;;;;;1999.90;999.90;;;1.20;99.90;;;;;;5050701;28;20957;-63
2023/03/11 06:41:56;;;;;;;1999.90;999.90;;;1.30;99.90;;;;;;5051003;28;20452;-64
2023/03/11 06:44:24;;;;;;;1999.90;999.90;;;1.30;99.90;;;;;;5050962;28;20488;-64
2023/03/11 06:46:51;;;;;;;1999.90;999.90;;;1.30;99.90;;;;;;5050984;28;20495;-64
2023/03/11 06:49:18;;;;;;;1999.90;999.90;;;1.30;99.90;;;;;;5050906;28;20444;-64
2023/03/11 06:51:45;;;;;;;1999.90;999.90;;;1.30;99.90;;;;;;5050470;28;20451;-63
2023/03/11 06:54:11;;;;;;;1999.90;999.90;;;1.30;99.90;;;;;;5050298;28;20444;-64
2023/03/11 06:56:38;;;;;;;1999.90;999.90;;;1.40;99.90;;;;;;5050860;28;20464;-63
2023/03/11 06:59:05;;;;;;;1999.90;999.90;;;1.40;99.90;;;;;;5050442;28;21019;-64
2023/03/11 07:01:33;;;;;;;1999.90;999.90;;;1.50;99.90;;;;;;5050508;28;20456;-64
2023/03/11 07:04:00;;;;;;;1999.90;999.90;;;1.60;99.90;;;;;;5050284;28;20980;-64
2023/03/11 07:06:28;;;;;;;1999.90;999.90;;;1.70;99.90;;;;;;5054156;28;20466;-63
2023/03/11 07:08:55;;;;;;;1999.90;999.90;;;1.80;99.90;;;;;;5054577;28;20958;-62
2023/03/11 07:11:23;;;;;;;1999.90;999.90;;;1.80;99.90;;;;;;5054131;28;20452;-63
2023/03/11 07:13:51;;;;;;;1999.90;999.90;;;1.90;99.90;;;;;;5053872;28;20456;-63
2023/03/11 07:16:20;;;;;;;1999.90;999.90;;;2.00;99.90;;;;;;5053882;28;20534;-64
2023/03/11 07:18:49;;;;;;;1999.90;999.90;;;2.10;99.90;;;;;;5053681;28;20452;-63
2023/03/11 07:21:19;;;;;;;1999.90;999.90;;;2.20;99.90;;;;;;5053828;28;20454;-64
2023/03/11 07:23:48;;;;;;;1999.90;999.90;;;2.30;99.90;;;;;;5053757;28;20475;-63
2023/03/11 07:26:16;;;;;;;1999.90;999.90;;;2.30;99.90;;;;;;5053884;28;20486;-65
2023/03/11 07:28:44;;;;;;;1999.90;999.90;;;2.50;99.90;;;;;;5054312;28;20452;-64
2023/03/11 07:31:12;;;;;;;1999.90;999.90;;;2.50;99.90;;;;;;5054227;28;20478;-60
2023/03/11 07:33:39;;;;;;;1999.90;999.90;;;2.60;99.90;;;;;;5053974;28;20440;-64
2023/03/11 07:36:09;;;;;;;1999.90;999.90;;;2.60;99.90;;;;;;5056102;28;20569;-64
2023/03/11 07:38:36;;;;;;;1999.90;999.90;;;2.60;99.90;;;;;;5057469;28;20452;-63
2023/03/11 07:41:03;;;;;;;1999.90;999.90;;;2.60;99.90;;;;;;5056046;28;20448;-63
2023/03/11 07:43:30;;;;;;;1999.90;999.90;;;2.70;99.90;;;;;;5055351;28;20454;-64
2023/03/11 07:46:05;;;;;;;1999.90;999.90;;;2.70;99.90;;;;;;5055301;28;20466;-63
2023/03/11 07:48:33;;;;;;;1999.90;999.90;;;2.80;99.90;;;;;;5053823;28;20448;-64
2023/03/11 07:51:04;;;;;;;1999.90;999.90;;;2.90;99.90;;;;;;5053420;28;20954;-64
2023/03/11 07:53:33;;;;;;;1999.90;999.90;;;2.80;99.90;;;;;;5052884;28;20927;-65
2023/03/11 07:56:00;;;;;;;1999.90;999.90;;;2.90;99.90;;;;;;5053068;28;20474;-63
2023/03/11 07:58:28;;;;;;;1999.90;999.90;;;2.80;99.90;;;;;;5053307;28;20448;-63
2023/03/11 08:00:55;;;;;;;1999.90;999.90;;;2.80;99.90;;;;;;5065383;28;20455;-64
2023/03/11 08:03:22;;;;;;;1999.90;999.90;;;2.80;99.90;;;;;;5074076;28;20475;-66
2023/03/11 08:05:49;;;;;;;1999.90;999.90;;;2.90;99.90;;;;;;5072969;28;20493;-64
2023/03/11 08:08:16;;;;;;;1999.90;999.90;;;2.90;99.90;;;;;;5072633;28;20458;-64
2023/03/11 08:10:45;;;;;;;1999.90;999.90;;;2.90;99.90;;;;;;5073038;28;20454;-64
2023/03/11 08:13:11;;;;;;;1999.90;999.90;;;3.00;99.90;;;;;;5072549;28;20457;-65
2023/03/11 08:15:38;;;;;;;1999.90;999.90;;;2.90;99.90;;;;;;5077599;28;20467;-64
2023/03/11 08:18:05;;;;;;;1999.90;999.90;;;2.90;99.90;;;;;;5076544;28;20452;-64
2023/03/11 08:20:32;;;;;;;1999.90;999.90;;;2.90;99.90;;;;;;5074109;28;20450;-64
2023/03/11 08:22:59;;;;;;;1999.90;999.90;;;3.10;99.90;;;;;;5071974;28;20478;-64
2023/03/11 08:25:26;;;;;;;1999.90;999.90;;;3.20;99.90;;;;;;5073174;28;20486;-64
2023/03/11 08:27:54;;;;;;;1999.90;999.90;;;3.40;99.90;;;;;;5073666;28;20825;-64
2023/03/11 08:30:21;;;;;;;1999.90;999.90;;;3.50;99.90;;;;;;5073506;28;20440;-64
2023/03/11 08:32:49;;;;;;;1999.90;999.90;;;3.60;99.90;;;;;;5073381;28;20473;-67
2023/03/11 08:35:16;;;;;;;1999.90;999.90;;;3.50;99.90;;;;;;5073365;28;20435;-65
2023/03/11 08:37:43;;;;;;;1999.90;999.90;;;3.30;99.90;;;;;;5072663;28;20962;-65
2023/03/11 08:40:11;;;;;;;1999.90;999.90;;;3.50;99.90;;;;;;5073076;28;20806;-65
2023/03/11 08:42:38;;;;;;;1999.90;999.90;;;3.60;99.90;;;;;;5072248;28;20941;-65
2023/03/11 08:45:07;;;;;;;1999.90;999.90;;;3.70;99.90;;;;;;5072784;28;20493;-65
2023/03/11 08:47:35;;;;;;;1999.90;999.90;;;3.80;99.90;;;;;;5072669;28;20451;-66
2023/03/11 08:50:02;;;;;;;1999.90;999.90;;;4.00;99.90;;;;;;5072468;28;20510;-64
2023/03/11 08:52:29;;;;;;;1999.90;999.90;;;4.00;99.90;;;;;;5071655;28;20446;-66
2023/03/11 08:54:55;;;;;;;1999.90;999.90;;;4.20;99.90;;;;;;5072687;28;20462;-64
2023/03/11 08:57:22;;;;;;;1999.90;999.90;;;4.30;99.90;;;;;;5072629;28;20471;-65
2023/03/11 08:59:49;;;;;;;1999.90;999.90;;;4.30;99.90;;;;;;5071552;28;20447;-66
2023/03/11 09:02:17;;;;;;;1999.90;999.90;;;4.40;99.90;;;;;;5072051;28;20452;-69
2023/03/11 09:04:44;;;;;;;1999.90;999.90;;;4.30;99.90;;;;;;5071620;28;21169;-65
2023/03/11 09:07:11;;;;;;;1999.90;999.90;;;4.30;99.90;;;;;;5072045;28;21157;-64
2023/03/11 09:09:38;;;;;;;1999.90;999.90;;;4.20;99.90;;;;;;5071975;28;20437;-65
2023/03/11 09:12:06;;;;;;;1999.90;999.90;;;4.10;99.90;;;;;;5072323;28;20446;-66
2023/03/11 09:14:34;;;;;;;1999.90;999.90;;;4.30;99.90;;;;;;5071577;28;20439;-66
2023/03/11 09:17:01;;;;;;;1999.90;999.90;;;4.80;99.90;;;;;;5072171;28;20536;-64
2023/03/11 09:19:29;;;;;;;1999.90;999.90;;;4.80;99.90;;;;;;5071996;28;20454;-65
2023/03/11 09:21:56;;;;;;;1999.90;999.90;;;4.50;99.90;;;;;;5072045;28;20458;-63
2023/03/11 09:24:22;;;;;;;1999.90;999.90;;;4.50;99.90;;;;;;5071663;28;20479;-65
2023/03/11 09:26:49;;;;;;;1999.90;999.90;;;4.30;99.90;;;;;;5071442;28;20471;-65
2023/03/11 09:29:16;;;;;;;1999.90;999.90;;;4.20;99.90;;;;;;5071787;28;20451;-66
2023/03/11 09:31:43;;;;;;;1999.90;999.90;;;4.30;99.90;;;;;;5071182;28;20450;-66
2023/03/11 09:34:11;;;;;;;1999.90;999.90;;;4.20;99.90;;;;;;5071243;28;20458;-67
2023/03/11 09:36:41;;;;;;;1999.90;999.90;;;4.20;99.90;;;;;;5071411;28;20853;-64
2023/03/11 09:39:07;;;;;;;1999.90;999.90;;;4.30;99.90;;;;;;5071255;28;20961;-65
2023/03/11 09:41:41;;;;;;;1999.90;999.90;;;4.40;99.90;;;;;;5071355;28;20447;-65
2023/03/11 09:44:20;;;;;;;1999.90;999.90;;;4.40;99.90;;;;;;5071014;28;20525;-65
2023/03/11 09:47:06;;;;;;;1999.90;999.90;;;4.40;99.90;;;;;;5072041;28;20473;-65
2023/03/11 09:49:46;;;;;;;1999.90;999.90;;;4.90;99.90;;;;;;5070840;28;20454;-66
2023/03/11 09:52:16;;;;;;;1999.90;999.90;;;5.50;99.90;;;;;;5071642;28;20439;-65
2023/03/11 09:54:47;;;;;;;1999.90;999.90;;;6.40;99.90;;;;;;5070416;28;21080;-65
2023/03/11 09:57:19;;;;;;;1999.90;999.90;;;7.40;99.90;;;;;;5070877;28;20468;-66
2023/03/11 09:59:47;;;;;;;1999.90;999.90;;;7.50;99.40;;;;;;5070702;28;20443;-66
2023/03/11 10:02:17;;;;;;;1999.90;999.90;;;7.80;99.00;;;;;;5070420;28;20458;-65
2023/03/11 10:04:53;;;;;;;1999.90;999.90;;;7.40;98.30;;;;;;5052258;28;21282;-65
2023/03/11 10:07:26;;;;;;;1999.90;999.90;;;6.70;99.20;;;;;;5050773;28;20471;-65
2023/03/11 10:09:55;;;;;;;1999.90;999.90;;;6.20;98.80;;;;;;5055061;28;20454;-66
2023/03/11 10:12:38;;;;;;;1999.90;999.90;;;6.10;99.30;;;;;;5070932;28;20449;-66
2023/03/11 10:15:17;;;;;;;1999.90;999.90;;;6.10;99.50;;;;;;5070020;28;20449;-65
2023/03/11 10:17:55;;;;;;;1999.90;999.90;;;6.20;98.40;;;;;;5065364;28;20444;-65
2023/03/11 10:20:26;;;;;;;1999.90;999.90;;;6.40;99.40;;;;;;5046744;28;20452;-66
2023/03/11 10:23:06;;;;;;;1999.90;999.90;;;6.60;99.90;;;;;;5048848;28;20445;-66
2023/03/11 10:25:47;;;;;;;1999.90;999.90;;;6.40;99.60;;;;;;5047561;28;20489;-68
2023/03/11 10:28:17;;;;;;;1999.90;999.90;;;5.80;97.50;;;;;;5048942;28;20454;-64
2023/03/11 10:30:50;;;;;;;1999.90;999.90;;;5.40;97.30;;;;;;5048233;28;20456;-66
2023/03/11 10:33:23;;;;;;;1999.90;999.90;;;5.30;97.80;;;;;;5046353;28;20521;-64
2023/03/11 10:35:53;;;;;;;1999.90;999.90;;;5.20;97.40;;;;;;5050028;28;21005;-65
2023/03/11 10:38:25;;;;;;;1999.90;999.90;;;5.30;96.80;;;;;;5049320;28;20447;-67
2023/03/11 10:40:55;;;;;;;1999.90;999.90;;;5.90;96.60;;;;;;5053308;28;20450;-66
2023/03/11 10:43:28;;;;;;;1999.90;999.90;;;6.30;96.10;;;;;;5053659;28;20961;-66
2023/03/11 10:45:55;;;;;;;1999.90;999.90;;;6.50;95.20;;;;;;5051826;28;20488;-66
2023/03/11 10:48:24;;;;;;;1999.90;999.90;;;6.60;96.20;;;;;;5053632;28;20440;-66
2023/03/11 10:50:57;;;;;;;1999.90;999.90;;;6.80;95.60;;;;;;5053811;28;20448;-66
2023/03/11 10:53:25;;;;;;;1999.90;999.90;;;6.70;95.90;;;;;;5053238;28;20431;-65
2023/03/11 10:55:55;;;;;;;1999.90;999.90;;;6.40;96.20;;;;;;5049102;28;20823;-66
2023/03/11 10:58:24;;;;;;;1999.90;999.90;;;6.10;96.90;;;;;;5053437;28;20444;-66
2023/03/11 11:01:01;;;;;;;1999.90;999.90;;;6.00;97.50;;;;;;5051713;28;20455;-65
2023/03/11 11:03:28;;;;;;;1999.90;999.90;;;6.00;97.40;;;;;;5053635;28;20804;-65
2023/03/11 11:06:01;;;;;;;1999.90;999.90;;;6.20;97.50;;;;;;5053967;28;20483;-66
2023/03/11 11:08:29;;;;;;;1999.90;999.90;;;7.50;96.00;;;;;;5051958;28;20466;-66
2023/03/11 11:10:58;;;;;;;1999.90;999.90;;;9.20;92.90;;;;;;5049906;28;20524;-66
2023/03/11 11:13:26;;;;;;;1999.90;999.90;;;10.70;90.60;;;;;;5052192;28;20945;-67
2023/03/11 11:15:59;;;;;;;1999.90;999.90;;;11.30;87.50;;;;;;5051497;28;20849;-65
2023/03/11 11:18:29;;;;;;;1999.90;999.90;;;12.00;83.70;;;;;;5054091;28;20447;-65
2023/03/11 11:21:00;;;;;;;1999.90;999.90;;;12.60;79.30;;;;;;5053857;28;20452;-65
2023/03/11 11:23:33;;;;;;;1999.90;999.90;;;12.50;79.30;;;;;;5053306;28;21175;-65
2023/03/11 11:26:03;;;;;;;1999.90;999.90;;;12.10;77.10;;;;;;5050458;28;20483;-65
2023/03/11 11:28:31;;;;;;;1999.90;999.90;;;11.10;77.30;;;;;;5053154;28;20447;-66
2023/03/11 11:30:59;;;;;;;1999.90;999.90;;;9.70;78.30;;;;;;5053395;28;20448;-66
2023/03/11 11:33:29;;;;;;;1999.90;999.90;;;8.70;82.70;;;;;;5052774;28;20450;-66
2023/03/11 11:35:57;;;;;;;1999.90;999.90;;;8.10;85.10;;;;;;5053154;28;20460;-66
2023/03/11 11:38:26;;;;;;;1999.90;999.90;;;7.70;87.10;;;;;;5045980;28;20803;-66
2023/03/11 11:40:57;;;;;;;1999.90;999.90;;;7.70;87.40;;;;;;5047292;28;20452;-66
2023/03/11 11:43:34;;;;;;;1999.90;999.90;;;8.50;85.90;;;;;;5049556;28;20843;-66
2023/03/11 11:46:05;;;;;;;1999.90;999.90;;;8.80;90.50;;;;;;5050803;28;20479;-66
2023/03/11 11:48:41;;;;;;;1999.90;999.90;;;8.30;87.00;;;;;;5051517;28;20463;-66
2023/03/11 11:51:16;;;;;;;1999.90;999.90;;;8.30;90.50;;;;;;5047974;28;20942;-67
2023/03/11 11:53:50;;;;;;;1999.90;999.90;;;9.20;88.90;;;;;;5049969;28;20462;-67
2023/03/11 11:56:18;;;;;;;1999.90;999.90;;;10.40;82.20;;;;;;5051619;28;20531;-66
2023/03/11 11:58:45;;;;;;;1999.90;999.90;;;11.30;82.10;;;;;;5050517;28;20454;-67
2023/03/11 12:01:19;;;;;;;1999.90;999.90;;;11.40;79.90;;;;;;5051106;28;20515;-66
2023/03/11 12:04:25;;;;;;;1999.90;999.90;;;10.80;77.70;;;;;;5046396;28;20445;-66
2023/03/11 12:07:09;;;;;;;1999.90;999.90;;;10.70;79.90;;;;;;5046697;28;20502;-67
2023/03/11 12:09:42;;;;;;;1999.90;999.90;;;10.10;82.80;;;;;;5048661;28;20440;-67
2023/03/11 12:12:21;;;;;;;1999.90;999.90;;;10.70;82.30;;;;;;5049518;28;20440;-67
2023/03/11 12:14:56;;;;;;;1999.90;999.90;;;11.00;80.60;;;;;;5048733;28;20800;-67